sensor_id;sensor_type;location;lat;lon;timestamp;pressure;altitude;pressure_sealevel;temperature;humidity
28267;BME280;15525;45.568;5.448;2024-03-08T00:01:52;97618.88;;;8.58;52.59
28267;BME280;15525;45.568;5.448;2024-03-08T00:04:18;97622.59;;;8.57;52.54
28267;BME280;15525;45.568;5.448;2024-03-08T00:06:43;97618.59;;;8.44;52.64
28267;BME280;15525;45.568;5.448;2024-03-08T00:09:11;97622.56;;;8.32;52.67
28267;BME280;15525;45.568;5.448;2024-03-08T00:11:37;97612.19;;;8.30;53.28
28267;BME280;15525;45.568;5.448;2024-03-08T00:14:08;97611.34;;;8.30;53.67
28267;BME280;15525;45.568;5.448;2024-03-08T00:16:34;97624.44;;;8.31;52.76
28267;BME280;15525;45.568;5.448;2024-03-08T00:19:00;97619.34;;;8.25;53.17
28267;BME280;15525;45.568;5.448;2024-03-08T00:21:26;97613.47;;;8.18;53.29
28267;BME280;15525;45.568;5.448;2024-03-08T00:23:54;97612.38;;;8.19;52.85
28267;BME280;15525;45.568;5.448;2024-03-08T00:26:20;97603.31;;;8.15;53.09
28267;BME280;15525;45.568;5.448;2024-03-08T00:28:47;97605.19;;;8.14;52.85
28267;BME280;15525;45.568;5.448;2024-03-08T00:31:14;97602.25;;;8.11;53.12
28267;BME280;15525;45.568;5.448;2024-03-08T00:33:41;97595.84;;;8.07;53.42
28267;BME280;15525;45.568;5.448;2024-03-08T00:36:06;97596.38;;;8.04;53.25
28267;BME280;15525;45.568;5.448;2024-03-08T00:38:32;97595.06;;;8.06;53.41
28267;BME280;15525;45.568;5.448;2024-03-08T00:40:59;97584.41;;;8.06;53.51
28267;BME280;15525;45.568;5.448;2024-03-08T00:43:25;97582.50;;;8.07;52.90
28267;BME280;15525;45.568;5.448;2024-03-08T00:45:51;97569.19;;;7.97;53.17
28267;BME280;15525;45.568;5.448;2024-03-08T00:48:16;97564.91;;;7.91;52.77
28267;BME280;15525;45.568;5.448;2024-03-08T00:50:42;97567.31;;;7.92;52.92
28267;BME280;15525;45.568;5.448;2024-03-08T00:53:11;97558.00;;;7.90;53.28
28267;BME280;15525;45.568;5.448;2024-03-08T00:55:36;97563.31;;;7.95;53.09
28267;BME280;15525;45.568;5.448;2024-03-08T00:58:03;97561.16;;;7.87;53.31
28267;BME280;15525;45.568;5.448;2024-03-08T01:00:29;97559.84;;;7.84;53.21
28267;BME280;15525;45.568;5.448;2024-03-08T01:02:54;97552.09;;;7.83;53.34
28267;BME280;15525;45.568;5.448;2024-03-08T01:05:19;97540.91;;;7.81;52.96
28267;BME280;15525;45.568;5.448;2024-03-08T01:07:45;97557.69;;;7.86;53.54
28267;BME280;15525;45.568;5.448;2024-03-08T01:10:11;97556.34;;;7.84;53.36
28267;BME280;15525;45.568;5.448;2024-03-08T01:12:38;97548.91;;;7.81;53.54
28267;BME280;15525;45.568;5.448;2024-03-08T01:15:03;97533.19;;;7.74;53.63
28267;BME280;15525;45.568;5.448;2024-03-08T01:17:29;97531.03;;;7.66;53.41
28267;BME280;15525;45.568;5.448;2024-03-08T01:19:54;97540.09;;;7.75;53.59
28267;BME280;15525;45.568;5.448;2024-03-08T01:22:20;97533.19;;;7.74;53.64
28267;BME280;15525;45.568;5.448;2024-03-08T01:24:45;97537.16;;;7.67;53.43
28267;BME280;15525;45.568;5.448;2024-03-08T01:27:10;97536.31;;;7.46;53.76
28267;BME280;15525;45.568;5.448;2024-03-08T01:29:37;97525.28;;;7.23;54.22
28267;BME280;15525;45.568;5.448;2024-03-08T01:32:03;97531.69;;;7.22;54.71
28267;BME280;15525;45.568;5.448;2024-03-08T01:34:28;97529.56;;;7.29;54.70
28267;BME280;15525;45.568;5.448;2024-03-08T01:36:54;97534.13;;;7.38;54.22
28267;BME280;15525;45.568;5.448;2024-03-08T01:39:21;97527.50;;;7.41;54.38
28267;BME280;15525;45.568;5.448;2024-03-08T01:41:47;97516.81;;;7.36;54.40
28267;BME280;15525;45.568;5.448;2024-03-08T01:44:13;97519.47;;;7.31;54.40
28267;BME280;15525;45.568;5.448;2024-03-08T01:46:44;97515.22;;;7.30;54.36
28267;BME280;15525;45.568;5.448;2024-03-08T01:49:10;97504.06;;;7.43;54.09
28267;BME280;15525;45.568;5.448;2024-03-08T01:51:36;97507.25;;;7.35;54.22
28267;BME280;15525;45.568;5.448;2024-03-08T01:54:03;97501.91;;;7.30;53.91
28267;BME280;15525;45.568;5.448;2024-03-08T01:56:29;97494.44;;;7.27;54.59
28267;BME280;15525;45.568;5.448;2024-03-08T01:58:57;97509.31;;;7.23;54.37
28267;BME280;15525;45.568;5.448;2024-03-08T02:01:23;97491.22;;;7.20;54.35
28267;BME280;15525;45.568;5.448;2024-03-08T02:03:49;97489.63;;;7.24;54.43
28267;BME280;15525;45.568;5.448;2024-03-08T02:06:15;97488.88;;;7.28;54.31
28267;BME280;15525;45.568;5.448;2024-03-08T02:08:45;97476.88;;;7.26;54.68
28267;BME280;15525;45.568;5.448;2024-03-08T02:11:11;97479.78;;;7.19;54.42
28267;BME280;15525;45.568;5.448;2024-03-08T02:13:36;97475.25;;;7.25;53.97
28267;BME280;15525;45.568;5.448;2024-03-08T02:16:02;97466.50;;;7.29;54.29
28267;BME280;15525;45.568;5.448;2024-03-08T02:18:29;97467.81;;;7.27;54.10
28267;BME280;15525;45.568;5.448;2024-03-08T02:21:01;97461.94;;;7.25;53.94
28267;BME280;15525;45.568;5.448;2024-03-08T02:23:27;97455.84;;;7.29;54.29
28267;BME280;15525;45.568;5.448;2024-03-08T02:25:54;97452.13;;;7.30;54.46
28267;BME280;15525;45.568;5.448;2024-03-08T02:28:20;97454.25;;;7.28;54.49
28267;BME280;15525;45.568;5.448;2024-03-08T02:30:46;97424.41;;;7.16;54.61
28267;BME280;15525;45.568;5.448;2024-03-08T02:33:14;97440.66;;;7.20;54.81
28267;BME280;15525;45.568;5.448;2024-03-08T02:35:42;97455.28;;;7.22;54.71
28267;BME280;15525;45.568;5.448;2024-03-08T02:38:11;97434.81;;;7.23;54.12
28267;BME280;15525;45.568;5.448;2024-03-08T02:40:36;97442.03;;;7.27;54.43
28267;BME280;15525;45.568;5.448;2024-03-08T02:43:02;97435.06;;;7.21;54.36
28267;BME280;15525;45.568;5.448;2024-03-08T02:45:30;97427.88;;;7.12;54.70
28267;BME280;15525;45.568;5.448;2024-03-08T02:47:55;97436.63;;;7.12;54.46
28267;BME280;15525;45.568;5.448;2024-03-08T02:50:21;97431.31;;;7.12;54.76
28267;BME280;15525;45.568;5.448;2024-03-08T02:52:48;97418.28;;;7.11;54.75
28267;BME280;15525;45.568;5.448;2024-03-08T02:55:13;97420.97;;;7.16;55.06
28267;BME280;15525;45.568;5.448;2024-03-08T02:57:42;97425.75;;;7.14;54.48
28267;BME280;15525;45.568;5.448;2024-03-08T03:00:09;97410.84;;;7.08;54.79
28267;BME280;15525;45.568;5.448;2024-03-08T03:02:35;97408.69;;;7.10;54.49
28267;BME280;15525;45.568;5.448;2024-03-08T03:05:01;97414.84;;;7.10;54.85
28267;BME280;15525;45.568;5.448;2024-03-08T03:07:32;97396.97;;;7.06;54.69
28267;BME280;15525;45.568;5.448;2024-03-08T03:09:59;97403.91;;;7.07;54.69
28267;BME280;15525;45.568;5.448;2024-03-08T03:12:25;97397.47;;;6.93;54.75
28267;BME280;15525;45.568;5.448;2024-03-08T03:14:51;97399.09;;;6.94;54.96
28267;BME280;15525;45.568;5.448;2024-03-08T03:17:17;97398.53;;;6.92;54.94
28267;BME280;15525;45.568;5.448;2024-03-08T03:19:42;97396.66;;;6.77;55.57
28267;BME280;15525;45.568;5.448;2024-03-08T03:22:08;97400.63;;;6.75;55.36
28267;BME280;15525;45.568;5.448;2024-03-08T03:24:35;97390.50;;;6.77;55.64
28267;BME280;15525;45.568;5.448;2024-03-08T03:27:06;97387.84;;;6.77;55.22
28267;BME280;15525;45.568;5.448;2024-03-08T03:29:44;97388.13;;;6.80;56.51
28267;BME280;15525;45.568;5.448;2024-03-08T03:32:14;97380.97;;;6.86;55.12
28267;BME280;15525;45.568;5.448;2024-03-08T03:34:40;97371.16;;;6.86;55.11
28267;BME280;15525;45.568;5.448;2024-03-08T03:37:07;97379.91;;;6.92;55.67
28267;BME280;15525;45.568;5.448;2024-03-08T03:39:33;97379.91;;;6.92;55.21
28267;BME280;15525;45.568;5.448;2024-03-08T03:42:00;97373.50;;;6.88;55.32
28267;BME280;15525;45.568;5.448;2024-03-08T03:44:28;97371.94;;;6.87;55.44
28267;BME280;15525;45.568;5.448;2024-03-08T03:46:53;97364.50;;;6.84;55.12
28267;BME280;15525;45.568;5.448;2024-03-08T03:49:19;97359.69;;;6.81;55.30
28267;BME280;15525;45.568;5.448;2024-03-08T03:51:45;97359.69;;;6.81;55.40
28267;BME280;15525;45.568;5.448;2024-03-08T03:54:10;97355.97;;;6.87;55.53
28267;BME280;15525;45.568;5.448;2024-03-08T03:56:36;97358.94;;;6.95;55.60
28267;BME280;15525;45.568;5.448;2024-03-08T03:59:01;97365.84;;;7.01;55.46
28267;BME280;15525;45.568;5.448;2024-03-08T04:01:27;97358.66;;;7.02;55.06
28267;BME280;15525;45.568;5.448;2024-03-08T04:03:52;97363.47;;;7.05;55.49
28267;BME280;15525;45.568;5.448;2024-03-08T04:06:18;97352.81;;;7.00;55.46
28267;BME280;15525;45.568;5.448;2024-03-08T04:08:43;97365.03;;;6.96;55.70
28267;BME280;15525;45.568;5.448;2024-03-08T04:11:08;97364.25;;;6.95;55.40
28267;BME280;15525;45.568;5.448;2024-03-08T04:13:34;97359.97;;;6.94;55.88
28267;BME280;15525;45.568;5.448;2024-03-08T04:16:01;97361.28;;;6.92;55.60
28267;BME280;15525;45.568;5.448;2024-03-08T04:18:27;97352.00;;;6.94;55.72
28267;BME280;15525;45.568;5.448;2024-03-08T04:20:53;97352.56;;;7.01;55.71
28267;BME280;15525;45.568;5.448;2024-03-08T04:23:19;97347.78;;;7.13;55.72
28267;BME280;15525;45.568;5.448;2024-03-08T04:25:44;97350.72;;;7.17;55.86
28267;BME280;15525;45.568;5.448;2024-03-08T04:28:10;97355.22;;;7.21;55.54
28267;BME280;15525;45.568;5.448;2024-03-08T04:30:40;97337.13;;;7.08;55.92
28267;BME280;15525;45.568;5.448;2024-03-08T04:33:06;97332.09;;;7.07;55.64
28267;BME280;15525;45.568;5.448;2024-03-08T04:35:34;97324.09;;;7.07;55.88
28267;BME280;15525;45.568;5.448;2024-03-08T04:38:00;97335.78;;;7.11;55.92
28267;BME280;15525;45.568;5.448;2024-03-08T04:40:25;97330.78;;;7.19;55.87
28267;BME280;15525;45.568;5.448;2024-03-08T04:42:51;97319.06;;;7.25;56.14
28267;BME280;15525;45.568;5.448;2024-03-08T04:45:17;97321.47;;;7.32;56.21
28267;BME280;15525;45.568;5.448;2024-03-08T04:47:43;97311.88;;;7.31;55.93
28267;BME280;15525;45.568;5.448;2024-03-08T04:50:08;97318.00;;;7.36;56.11
28267;BME280;15525;45.568;5.448;2024-03-08T04:52:34;97318.28;;;7.40;56.39
28267;BME280;15525;45.568;5.448;2024-03-08T04:55:01;97326.00;;;7.46;56.30
28267;BME280;15525;45.568;5.448;2024-03-08T04:57:27;97302.28;;;7.45;56.24
28267;BME280;15525;45.568;5.448;2024-03-08T04:59:52;97305.47;;;7.52;56.29
28267;BME280;15525;45.568;5.448;2024-03-08T05:02:18;97305.22;;;7.48;56.38
28267;BME280;15525;45.568;5.448;2024-03-08T05:04:43;97300.44;;;7.50;56.55
28267;BME280;15525;45.568;5.448;2024-03-08T05:07:09;97293.78;;;7.53;56.45
28267;BME280;15525;45.568;5.448;2024-03-08T05:09:35;97297.22;;;7.53;56.28
28267;BME280;15525;45.568;5.448;2024-03-08T05:12:01;97298.03;;;7.54;56.12
28267;BME280;15525;45.568;5.448;2024-03-08T05:14:26;97291.38;;;7.46;56.52
28267;BME280;15525;45.568;5.448;2024-03-08T05:16:52;97295.38;;;7.44;56.56
28267;BME280;15525;45.568;5.448;2024-03-08T05:19:19;97298.03;;;7.44;56.57
28267;BME280;15525;45.568;5.448;2024-03-08T05:21:45;97289.25;;;7.43;56.66
28267;BME280;15525;45.568;5.448;2024-03-08T05:24:12;97291.38;;;7.46;56.22
28267;BME280;15525;45.568;5.448;2024-03-08T05:26:38;97284.75;;;7.39;56.73
28267;BME280;15525;45.568;5.448;2024-03-08T05:29:04;97292.72;;;7.44;56.25
28267;BME280;15525;45.568;5.448;2024-03-08T05:31:42;97295.91;;;7.41;56.80
28267;BME280;15525;45.568;5.448;2024-03-08T05:34:11;97287.94;;;7.36;56.78
28267;BME280;15525;45.568;5.448;2024-03-08T05:36:40;97281.00;;;7.35;57.02
28267;BME280;15525;45.568;5.448;2024-03-08T05:39:05;97283.66;;;7.40;56.61
28267;BME280;15525;45.568;5.448;2024-03-08T05:41:32;97284.19;;;7.42;56.42
28267;BME280;15525;45.568;5.448;2024-03-08T05:43:57;97268.75;;;7.29;56.54
28267;BME280;15525;45.568;5.448;2024-03-08T05:46:23;97283.66;;;7.35;56.64
28267;BME280;15525;45.568;5.448;2024-03-08T05:48:48;97278.34;;;7.30;56.57
28267;BME280;15525;45.568;5.448;2024-03-08T05:51:13;97287.13;;;7.30;56.55
28267;BME280;15525;45.568;5.448;2024-03-08T05:53:39;97275.97;;;7.23;56.80
28267;BME280;15525;45.568;5.448;2024-03-08T05:56:05;97279.94;;;7.21;56.49
28267;BME280;15525;45.568;5.448;2024-03-08T05:58:30;97291.13;;;7.13;57.23
28267;BME280;15525;45.568;5.448;2024-03-08T06:00:56;97283.66;;;7.10;56.76
28267;BME280;15525;45.568;5.448;2024-03-08T06:03:22;97280.47;;;7.13;56.83
28267;BME280;15525;45.568;5.448;2024-03-08T06:05:49;97288.44;;;7.23;57.01
28267;BME280;15525;45.568;5.448;2024-03-08T06:08:15;97288.72;;;7.26;56.77
28267;BME280;15525;45.568;5.448;2024-03-08T06:10:41;97282.63;;;7.21;56.44
28267;BME280;15525;45.568;5.448;2024-03-08T06:13:06;97282.88;;;7.19;56.46
28267;BME280;15525;45.568;5.448;2024-03-08T06:15:32;97274.34;;;7.07;56.91
28267;BME280;15525;45.568;5.448;2024-03-08T06:17:57;97281.53;;;7.12;56.86
28267;BME280;15525;45.568;5.448;2024-03-08T06:20:23;97275.94;;;7.13;56.65
28267;BME280;15525;45.568;5.448;2024-03-08T06:22:51;97286.31;;;7.20;56.91
28267;BME280;15525;45.568;5.448;2024-03-08T06:25:17;97262.38;;;7.10;57.01
28267;BME280;15525;45.568;5.448;2024-03-08T06:27:43;97271.16;;;7.20;56.92
28267;BME280;15525;45.568;5.448;2024-03-08T06:30:09;97258.41;;;7.27;56.91
28267;BME280;15525;45.568;5.448;2024-03-08T06:32:38;97262.88;;;7.42;56.63
28267;BME280;15525;45.568;5.448;2024-03-08T06:35:05;97271.41;;;7.59;56.50
28267;BME280;15525;45.568;5.448;2024-03-08T06:37:34;97260.19;;;7.57;56.93
28267;BME280;15525;45.568;5.448;2024-03-08T06:40:00;97259.13;;;7.68;56.65
28267;BME280;15525;45.568;5.448;2024-03-08T06:42:29;97266.03;;;7.74;56.83
28267;BME280;15525;45.568;5.448;2024-03-08T06:44:58;97253.78;;;7.78;56.32
28267;BME280;15525;45.568;5.448;2024-03-08T06:47:29;97266.53;;;7.91;56.50
28267;BME280;15525;45.568;5.448;2024-03-08T06:49:55;97264.69;;;7.91;56.13
28267;BME280;15525;45.568;5.448;2024-03-08T06:52:20;97255.63;;;7.92;56.85
28267;BME280;15525;45.568;5.448;2024-03-08T06:54:47;97258.25;;;7.97;56.83
28267;BME280;15525;45.568;5.448;2024-03-08T06:57:12;97257.13;;;8.08;56.51
28267;BME280;15525;45.568;5.448;2024-03-08T06:59:39;97251.81;;;8.08;56.86
28267;BME280;15525;45.568;5.448;2024-03-08T07:02:04;97255.25;;;8.19;56.58
28267;BME280;15525;45.568;5.448;2024-03-08T07:04:29;97247.53;;;8.12;57.08
28267;BME280;15525;45.568;5.448;2024-03-08T07:06:56;97245.38;;;8.29;56.39
28267;BME280;15525;45.568;5.448;2024-03-08T07:09:25;97246.09;;;8.45;55.71
28267;BME280;15525;45.568;5.448;2024-03-08T07:11:51;97238.03;;;8.55;56.24
28267;BME280;15525;45.568;5.448;2024-03-08T07:14:24;97242.28;;;8.56;56.28
28267;BME280;15525;45.568;5.448;2024-03-08T07:16:50;97233.72;;;8.64;56.25
28267;BME280;15525;45.568;5.448;2024-03-08T07:19:16;97237.91;;;8.75;56.38
28267;BME280;15525;45.568;5.448;2024-03-08T07:21:43;97235.47;;;8.83;55.62
28267;BME280;15525;45.568;5.448;2024-03-08T07:24:09;97233.19;;;9.00;55.05
28267;BME280;15525;45.568;5.448;2024-03-08T07:26:53;97237.69;;;9.05;55.76
28267;BME280;15525;45.568;5.448;2024-03-08T07:29:19;97226.13;;;9.14;55.67
28267;BME280;15525;45.568;5.448;2024-03-08T07:31:44;97221.03;;;9.18;55.60
28267;BME280;15525;45.568;5.448;2024-03-08T07:34:16;97238.28;;;9.30;55.56
28267;BME280;15525;45.568;5.448;2024-03-08T07:36:42;97220.03;;;9.42;55.67
28267;BME280;15525;45.568;5.448;2024-03-08T07:39:07;97220.31;;;9.64;55.17
28267;BME280;15525;45.568;5.448;2024-03-08T07:41:37;97213.50;;;10.00;54.72
28267;BME280;15525;45.568;5.448;2024-03-08T07:44:06;97196.44;;;10.20;54.12
28267;BME280;15525;45.568;5.448;2024-03-08T07:46:31;97211.16;;;10.41;54.15
28267;BME280;15525;45.568;5.448;2024-03-08T07:48:56;97207.53;;;10.32;53.75
28267;BME280;15525;45.568;5.448;2024-03-08T07:51:22;97203.63;;;10.24;54.13
28267;BME280;15525;45.568;5.448;2024-03-08T07:53:47;97203.78;;;10.33;54.51
28267;BME280;15525;45.568;5.448;2024-03-08T07:56:13;97199.00;;;10.30;54.90
28267;BME280;15525;45.568;5.448;2024-03-08T07:58:39;97181.81;;;10.36;54.65
28267;BME280;15525;45.568;5.448;2024-03-08T08:01:08;97185.91;;;10.65;53.87
28267;BME280;15525;45.568;5.448;2024-03-08T08:03:34;97184.81;;;10.85;53.78
28267;BME280;15525;45.568;5.448;2024-03-08T08:06:00;97184.16;;;10.93;53.44
28267;BME280;15525;45.568;5.448;2024-03-08T08:08:26;97180.53;;;11.02;53.16
28267;BME280;15525;45.568;5.448;2024-03-08T08:10:52;97178.91;;;11.01;53.02
28267;BME280;15525;45.568;5.448;2024-03-08T08:13:17;97187.03;;;10.96;53.24
28267;BME280;15525;45.568;5.448;2024-03-08T08:15:43;97183.63;;;11.09;53.11
28267;BME280;15525;45.568;5.448;2024-03-08T08:18:09;97183.91;;;11.08;53.39
28267;BME280;15525;45.568;5.448;2024-03-08T08:20:35;97173.00;;;11.18;53.59
28267;BME280;15525;45.568;5.448;2024-03-08T08:23:00;97166.91;;;11.31;53.20
28267;BME280;15525;45.568;5.448;2024-03-08T08:25:25;97166.41;;;11.42;52.93
28267;BME280;15525;45.568;5.448;2024-03-08T08:27:51;97163.53;;;11.25;52.67
28267;BME280;15525;45.568;5.448;2024-03-08T08:30:17;97162.06;;;11.33;52.83
28267;BME280;15525;45.568;5.448;2024-03-08T08:32:43;97160.97;;;11.34;52.93
28267;BME280;15525;45.568;5.448;2024-03-08T08:35:09;97162.72;;;11.25;53.03
28267;BME280;15525;45.568;5.448;2024-03-08T08:37:41;97160.13;;;11.20;53.01
28267;BME280;15525;45.568;5.448;2024-03-08T08:40:07;97160.03;;;11.25;53.24
28267;BME280;15525;45.568;5.448;2024-03-08T08:42:39;97151.06;;;11.34;52.67
28267;BME280;15525;45.568;5.448;2024-03-08T08:45:05;97158.41;;;11.56;51.88
28267;BME280;15525;45.568;5.448;2024-03-08T08:47:36;97150.28;;;11.74;51.87
28267;BME280;15525;45.568;5.448;2024-03-08T08:50:03;97150.00;;;12.03;51.41
28267;BME280;15525;45.568;5.448;2024-03-08T08:52:30;97149.28;;;12.11;51.21
28267;BME280;15525;45.568;5.448;2024-03-08T08:54:55;97146.81;;;12.50;50.46
28267;BME280;15525;45.568;5.448;2024-03-08T08:57:21;97132.44;;;12.90;50.02
28267;BME280;15525;45.568;5.448;2024-03-08T08:59:47;97137.44;;;13.27;49.09
28267;BME280;15525;45.568;5.448;2024-03-08T09:02:12;97138.44;;;13.40;48.92
28267;BME280;15525;45.568;5.448;2024-03-08T09:04:38;97140.38;;;13.17;49.30
28267;BME280;15525;45.568;5.448;2024-03-08T09:07:03;97138.50;;;13.18;49.47
28267;BME280;15525;45.568;5.448;2024-03-08T09:09:32;97134.47;;;13.37;48.61
28267;BME280;15525;45.568;5.448;2024-03-08T09:11:57;97129.81;;;13.51;48.76
28267;BME280;15525;45.568;5.448;2024-03-08T09:14:22;97115.31;;;13.69;47.93
28267;BME280;15525;45.568;5.448;2024-03-08T09:16:48;97119.78;;;13.82;47.66
28267;BME280;15525;45.568;5.448;2024-03-08T09:19:13;97111.25;;;13.80;48.05
28267;BME280;15525;45.568;5.448;2024-03-08T09:21:39;97088.88;;;14.19;47.58
28267;BME280;15525;45.568;5.448;2024-03-08T09:24:05;97092.03;;;14.12;47.51
28267;BME280;15525;45.568;5.448;2024-03-08T09:26:32;97088.84;;;14.10;47.36
28267;BME280;15525;45.568;5.448;2024-03-08T09:28:59;97080.19;;;14.56;47.07
28267;BME280;15525;45.568;5.448;2024-03-08T09:31:24;97070.69;;;14.75;45.95
28267;BME280;15525;45.568;5.448;2024-03-08T09:33:51;97075.25;;;14.83;46.43
28267;BME280;15525;45.568;5.448;2024-03-08T09:36:17;97070.34;;;14.77;46.22
28267;BME280;15525;45.568;5.448;2024-03-08T09:38:43;97085.56;;;14.47;46.90
28267;BME280;15525;45.568;5.448;2024-03-08T09:41:09;97075.44;;;14.36;47.15
28267;BME280;15525;45.568;5.448;2024-03-08T09:43:35;97086.75;;;13.99;47.57
28267;BME280;15525;45.568;5.448;2024-03-08T09:46:02;97076.84;;;14.16;47.02
28267;BME280;15525;45.568;5.448;2024-03-08T09:48:29;97060.25;;;14.48;46.65
28267;BME280;15525;45.568;5.448;2024-03-08T09:50:54;97066.25;;;14.45;46.17
28267;BME280;15525;45.568;5.448;2024-03-08T09:53:21;97058.50;;;14.52;46.38
28267;BME280;15525;45.568;5.448;2024-03-08T09:55:48;97063.41;;;14.33;47.05
28267;BME280;15525;45.568;5.448;2024-03-08T09:58:15;97060.72;;;14.50;46.41
28267;BME280;15525;45.568;5.448;2024-03-08T10:00:43;97052.63;;;14.67;46.24
28267;BME280;15525;45.568;5.448;2024-03-08T10:03:08;97049.34;;;15.16;45.76
28267;BME280;15525;45.568;5.448;2024-03-08T10:05:34;97047.31;;;15.80;44.23
28267;BME280;15525;45.568;5.448;2024-03-08T10:07:59;97053.59;;;15.92;44.28
28267;BME280;15525;45.568;5.448;2024-03-08T10:10:25;97044.56;;;15.59;44.25
28267;BME280;15525;45.568;5.448;2024-03-08T10:12:51;97056.19;;;15.51;43.38
28267;BME280;15525;45.568;5.448;2024-03-08T10:15:17;97046.50;;;16.08;43.60
28267;BME280;15525;45.568;5.448;2024-03-08T10:17:42;97049.44;;;16.44;42.61
28267;BME280;15525;45.568;5.448;2024-03-08T10:22:41;97039.38;;;17.10;42.27
28267;BME280;15525;45.568;5.448;2024-03-08T10:25:12;97046.06;;;16.47;42.51
28267;BME280;15525;45.568;5.448;2024-03-08T10:27:39;97049.72;;;15.73;44.03
28267;BME280;15525;45.568;5.448;2024-03-08T10:30:15;97052.28;;;15.40;44.81
28267;BME280;15525;45.568;5.448;2024-03-08T10:32:45;97042.16;;;15.66;44.68
28267;BME280;15525;45.568;5.448;2024-03-08T10:35:10;97047.09;;;15.64;44.33
28267;BME280;15525;45.568;5.448;2024-03-08T10:37:57;97043.88;;;15.33;43.67
28267;BME280;15525;45.568;5.448;2024-03-08T10:40:28;97033.75;;;15.22;44.87
28267;BME280;15525;45.568;5.448;2024-03-08T10:42:55;97037.88;;;15.28;45.03
28267;BME280;15525;45.568;5.448;2024-03-08T10:45:38;97020.59;;;15.29;43.18
28267;BME280;15525;45.568;5.448;2024-03-08T10:48:27;97030.44;;;15.62;42.92
28267;BME280;15525;45.568;5.448;2024-03-08T10:51:00;97024.22;;;16.11;43.02
28267;BME280;15525;45.568;5.448;2024-03-08T10:53:28;97023.06;;;16.41;42.72
28267;BME280;15525;45.568;5.448;2024-03-08T10:55:56;97019.63;;;16.12;42.85
28267;BME280;15525;45.568;5.448;2024-03-08T10:58:24;97008.28;;;15.77;43.08
28267;BME280;15525;45.568;5.448;2024-03-08T11:00:55;97022.22;;;15.79;43.58
28267;BME280;15525;45.568;5.448;2024-03-08T11:06:07;97008.72;;;15.21;44.52
28267;BME280;15525;45.568;5.448;2024-03-08T11:08:33;97009.41;;;15.01;44.32
28267;BME280;15525;45.568;5.448;2024-03-08T11:11:00;97002.53;;;14.75;44.63
28267;BME280;15525;45.568;5.448;2024-03-08T11:13:41;96995.91;;;14.55;44.42
28267;BME280;15525;45.568;5.448;2024-03-08T11:16:36;96985.03;;;14.43;44.61
28267;BME280;15525;45.568;5.448;2024-03-08T11:21:36;96984.72;;;14.28;45.18
28267;BME280;15525;45.568;5.448;2024-03-08T11:24:14;96982.34;;;14.26;43.89
28267;BME280;15525;45.568;5.448;2024-03-08T11:26:42;96977.75;;;14.35;44.54
28267;BME280;15525;45.568;5.448;2024-03-08T11:32:16;96970.88;;;14.63;43.56
28267;BME280;15525;45.568;5.448;2024-03-08T11:34:45;96960.94;;;14.38;44.58
28267;BME280;15525;45.568;5.448;2024-03-08T11:37:13;96960.28;;;14.58;44.18
28267;BME280;15525;45.568;5.448;2024-03-08T11:39:40;96951.13;;;14.51;44.51
28267;BME280;15525;45.568;5.448;2024-03-08T11:42:05;96949.09;;;14.39;44.88
28267;BME280;15525;45.568;5.448;2024-03-08T11:44:32;96941.47;;;14.41;44.46
28267;BME280;15525;45.568;5.448;2024-03-08T11:46:57;96925.44;;;14.53;44.54
28267;BME280;15525;45.568;5.448;2024-03-08T11:49:23;96931.59;;;14.54;44.69
28267;BME280;15525;45.568;5.448;2024-03-08T11:51:52;96924.81;;;14.48;44.33
28267;BME280;15525;45.568;5.448;2024-03-08T11:54:19;96918.59;;;14.64;44.73
28267;BME280;15525;45.568;5.448;2024-03-08T11:56:45;96902.59;;;14.59;44.48
28267;BME280;15525;45.568;5.448;2024-03-08T11:59:13;96900.81;;;14.72;44.33
28267;BME280;15525;45.568;5.448;2024-03-08T12:01:39;96918.47;;;14.90;43.81
28267;BME280;15525;45.568;5.448;2024-03-08T12:04:04;96894.47;;;14.76;43.91
28267;BME280;15525;45.568;5.448;2024-03-08T12:06:39;96904.03;;;14.57;43.77
28267;BME280;15525;45.568;5.448;2024-03-08T12:09:08;96897.53;;;14.66;44.09
28267;BME280;15525;45.568;5.448;2024-03-08T12:11:35;96872.50;;;14.95;43.78
28267;BME280;15525;45.568;5.448;2024-03-08T12:14:01;96879.94;;;14.98;43.87
28267;BME280;15525;45.568;5.448;2024-03-08T12:16:27;96870.75;;;15.19;43.27
28267;BME280;15525;45.568;5.448;2024-03-08T12:18:53;96880.06;;;15.30;43.05
28267;BME280;15525;45.568;5.448;2024-03-08T12:21:19;96877.06;;;15.52;42.83
28267;BME280;15525;45.568;5.448;2024-03-08T12:24:06;96867.19;;;15.56;41.64
28267;BME280;15525;45.568;5.448;2024-03-08T12:26:38;96869.38;;;15.42;42.28
28267;BME280;15525;45.568;5.448;2024-03-08T12:29:23;96875.03;;;15.49;42.59
28267;BME280;15525;45.568;5.448;2024-03-08T12:31:55;96853.38;;;15.37;42.33
28267;BME280;15525;45.568;5.448;2024-03-08T12:34:23;96854.19;;;15.58;42.59
28267;BME280;15525;45.568;5.448;2024-03-08T12:36:50;96842.78;;;15.73;42.77
28267;BME280;15525;45.568;5.448;2024-03-08T12:39:19;96829.19;;;15.49;42.89
28267;BME280;15525;45.568;5.448;2024-03-08T12:41:50;96840.06;;;15.12;42.18
28267;BME280;15525;45.568;5.448;2024-03-08T12:44:20;96842.91;;;14.86;43.46
28267;BME280;15525;45.568;5.448;2024-03-08T12:46:47;96841.16;;;14.90;43.56
28267;BME280;15525;45.568;5.448;2024-03-08T12:49:13;96833.78;;;14.70;43.94
28267;BME280;15525;45.568;5.448;2024-03-08T12:51:43;96843.72;;;14.87;43.74
28267;BME280;15525;45.568;5.448;2024-03-08T12:54:08;96829.25;;;14.91;43.61
28267;BME280;15525;45.568;5.448;2024-03-08T12:56:35;96837.66;;;14.90;43.56
28267;BME280;15525;45.568;5.448;2024-03-08T12:59:03;96847.41;;;15.03;43.13
28267;BME280;15525;45.568;5.448;2024-03-08T13:01:30;96841.50;;;15.09;43.44
28267;BME280;15525;45.568;5.448;2024-03-08T13:03:58;96841.84;;;15.28;42.76
28267;BME280;15525;45.568;5.448;2024-03-08T13:06:28;96836.16;;;15.50;42.93
28267;BME280;15525;45.568;5.448;2024-03-08T13:08:54;96841.34;;;15.55;42.45
28267;BME280;15525;45.568;5.448;2024-03-08T13:11:21;96853.09;;;15.30;42.49
28267;BME280;15525;45.568;5.448;2024-03-08T13:13:47;96843.38;;;15.17;43.18
28267;BME280;15525;45.568;5.448;2024-03-08T13:16:13;96839.53;;;15.18;43.37
28267;BME280;15525;45.568;5.448;2024-03-08T13:18:43;96834.94;;;15.19;43.18